sensor_id;sensor_type;location;lat;lon;timestamp;P1;durP1;ratioP1;P2;durP2;ratioP2
17251;SDS011;8742;51.716;8.790;2022-11-13T00:02:24;1.80;;;1.70;;
17251;SDS011;8742;51.716;8.790;2022-11-13T00:04:51;3.00;;;1.70;;
17251;SDS011;8742;51.716;8.790;2022-11-13T00:07:19;4.13;;;1.77;;
17251;SDS011;8742;51.716;8.790;2022-11-13T00:09:46;2.17;;;1.97;;
17251;SDS011;8742;51.716;8.790;2022-11-13T00:12:13;3.57;;;1.90;;
17251;SDS011;8742;51.716;8.790;2022-11-13T00:14:40;2.37;;;1.87;;
17251;SDS011;8742;51.716;8.790;2022-11-13T00:17:06;1.90;;;1.70;;
17251;SDS011;8742;51.716;8.790;2022-11-13T00:19:33;3.40;;;2.10;;
17251;SDS011;8742;51.716;8.790;2022-11-13T00:22:05;3.90;;;1.80;;
17251;SDS011;8742;51.716;8.790;2022-11-13T00:24:34;2.13;;;1.83;;
17251;SDS011;8742;51.716;8.790;2022-11-13T00:27:00;2.60;;;1.87;;
17251;SDS011;8742;51.716;8.790;2022-11-13T00:29:27;3.47;;;1.70;;
17251;SDS011;8742;51.716;8.790;2022-11-13T00:31:54;3.27;;;1.70;;
17251;SDS011;8742;51.716;8.790;2022-11-13T00:34:21;3.63;;;2.00;;
17251;SDS011;8742;51.716;8.790;2022-11-13T00:36:48;3.10;;;2.03;;
17251;SDS011;8742;51.716;8.790;2022-11-13T00:39:15;2.27;;;1.67;;
17251;SDS011;8742;51.716;8.790;2022-11-13T00:41:43;4.23;;;1.80;;
17251;SDS011;8742;51.716;8.790;2022-11-13T00:44:09;3.90;;;1.70;;
17251;SDS011;8742;51.716;8.790;2022-11-13T00:46:36;1.87;;;1.77;;
17251;SDS011;8742;51.716;8.790;2022-11-13T00:49:03;2.43;;;1.90;;
17251;SDS011;8742;51.716;8.790;2022-11-13T00:51:30;1.93;;;1.73;;
17251;SDS011;8742;51.716;8.790;2022-11-13T00:53:57;1.70;;;1.60;;
17251;SDS011;8742;51.716;8.790;2022-11-13T00:56:24;2.53;;;1.80;;
17251;SDS011;8742;51.716;8.790;2022-11-13T00:58:52;3.23;;;1.67;;
17251;SDS011;8742;51.716;8.790;2022-11-13T01:01:19;2.23;;;1.70;;
17251;SDS011;8742;51.716;8.790;2022-11-13T01:03:47;3.27;;;1.73;;
17251;SDS011;8742;51.716;8.790;2022-11-13T01:06:15;2.07;;;1.60;;
17251;SDS011;8742;51.716;8.790;2022-11-13T01:08:44;1.63;;;1.53;;
17251;SDS011;8742;51.716;8.790;2022-11-13T01:11:12;3.20;;;1.87;;
17251;SDS011;8742;51.716;8.790;2022-11-13T01:13:44;2.57;;;1.33;;
17251;SDS011;8742;51.716;8.790;2022-11-13T01:16:14;5.03;;;1.67;;
17251;SDS011;8742;51.716;8.790;2022-11-13T01:18:42;1.40;;;1.30;;
17251;SDS011;8742;51.716;8.790;2022-11-13T01:21:10;1.97;;;1.47;;
17251;SDS011;8742;51.716;8.790;2022-11-13T01:23:38;1.33;;;1.23;;
17251;SDS011;8742;51.716;8.790;2022-11-13T01:26:06;2.47;;;1.87;;
17251;SDS011;8742;51.716;8.790;2022-11-13T01:28:34;1.77;;;1.40;;
17251;SDS011;8742;51.716;8.790;2022-11-13T01:31:03;1.90;;;1.43;;
17251;SDS011;8742;51.716;8.790;2022-11-13T01:33:32;2.37;;;1.77;;
17251;SDS011;8742;51.716;8.790;2022-11-13T01:35:59;3.07;;;1.70;;
17251;SDS011;8742;51.716;8.790;2022-11-13T01:38:26;2.80;;;1.73;;
17251;SDS011;8742;51.716;8.790;2022-11-13T01:40:53;4.43;;;1.57;;
17251;SDS011;8742;51.716;8.790;2022-11-13T01:43:22;2.67;;;1.70;;
17251;SDS011;8742;51.716;8.790;2022-11-13T01:46:01;3.87;;;1.87;;
17251;SDS011;8742;51.716;8.790;2022-11-13T01:48:46;1.30;;;1.20;;
17251;SDS011;8742;51.716;8.790;2022-11-13T01:51:18;2.53;;;1.50;;
17251;SDS011;8742;51.716;8.790;2022-11-13T01:53:51;3.50;;;1.50;;
17251;SDS011;8742;51.716;8.790;2022-11-13T01:56:26;4.20;;;1.53;;
17251;SDS011;8742;51.716;8.790;2022-11-13T01:58:54;2.67;;;1.60;;
17251;SDS011;8742;51.716;8.790;2022-11-13T02:01:26;2.77;;;1.40;;
17251;SDS011;8742;51.716;8.790;2022-11-13T02:03:54;3.20;;;1.63;;
17251;SDS011;8742;51.716;8.790;2022-11-13T02:06:21;2.20;;;1.40;;
17251;SDS011;8742;51.716;8.790;2022-11-13T02:08:49;1.77;;;1.50;;
17251;SDS011;8742;51.716;8.790;2022-11-13T02:11:16;4.40;;;1.90;;
17251;SDS011;8742;51.716;8.790;2022-11-13T02:13:44;2.63;;;1.70;;
17251;SDS011;8742;51.716;8.790;2022-11-13T02:16:12;2.03;;;1.70;;
17251;SDS011;8742;51.716;8.790;2022-11-13T02:18:40;1.93;;;1.80;;
17251;SDS011;8742;51.716;8.790;2022-11-13T02:24:02;3.80;;;1.80;;
17251;SDS011;8742;51.716;8.790;2022-11-13T02:26:40;1.60;;;1.50;;
17251;SDS011;8742;51.716;8.790;2022-11-13T02:29:08;1.80;;;1.37;;
17251;SDS011;8742;51.716;8.790;2022-11-13T02:31:34;2.07;;;1.50;;
17251;SDS011;8742;51.716;8.790;2022-11-13T02:34:02;2.53;;;1.73;;
17251;SDS011;8742;51.716;8.790;2022-11-13T02:36:29;2.30;;;1.30;;
17251;SDS011;8742;51.716;8.790;2022-11-13T02:38:56;4.00;;;1.67;;
17251;SDS011;8742;51.716;8.790;2022-11-13T02:41:27;1.90;;;1.60;;
17251;SDS011;8742;51.716;8.790;2022-11-13T02:43:54;3.40;;;1.90;;
17251;SDS011;8742;51.716;8.790;2022-11-13T02:46:20;3.80;;;1.93;;
17251;SDS011;8742;51.716;8.790;2022-11-13T02:48:47;2.00;;;1.50;;
17251;SDS011;8742;51.716;8.790;2022-11-13T02:51:14;2.13;;;1.70;;
17251;SDS011;8742;51.716;8.790;2022-11-13T02:53:41;2.63;;;1.93;;
17251;SDS011;8742;51.716;8.790;2022-11-13T02:56:07;1.70;;;1.60;;
17251;SDS011;8742;51.716;8.790;2022-11-13T02:58:36;1.50;;;1.40;;
17251;SDS011;8742;51.716;8.790;2022-11-13T03:01:03;2.87;;;1.97;;
17251;SDS011;8742;51.716;8.790;2022-11-13T03:03:30;2.43;;;1.67;;
17251;SDS011;8742;51.716;8.790;2022-11-13T03:05:56;3.33;;;1.83;;
17251;SDS011;8742;51.716;8.790;2022-11-13T03:08:23;3.83;;;2.07;;
17251;SDS011;8742;51.716;8.790;2022-11-13T03:10:50;2.17;;;1.80;;
17251;SDS011;8742;51.716;8.790;2022-11-13T03:13:17;1.97;;;1.77;;
17251;SDS011;8742;51.716;8.790;2022-11-13T03:15:45;1.60;;;1.50;;
17251;SDS011;8742;51.716;8.790;2022-11-13T03:18:12;3.63;;;1.83;;
17251;SDS011;8742;51.716;8.790;2022-11-13T03:20:40;4.30;;;1.67;;
17251;SDS011;8742;51.716;8.790;2022-11-13T03:23:09;2.77;;;1.87;;
17251;SDS011;8742;51.716;8.790;2022-11-13T03:25:36;2.57;;;2.07;;
17251;SDS011;8742;51.716;8.790;2022-11-13T03:28:03;1.97;;;1.70;;
17251;SDS011;8742;51.716;8.790;2022-11-13T03:30:30;3.67;;;2.00;;
17251;SDS011;8742;51.716;8.790;2022-11-13T03:33:00;2.50;;;1.87;;
17251;SDS011;8742;51.716;8.790;2022-11-13T03:35:26;4.47;;;1.67;;
17251;SDS011;8742;51.716;8.790;2022-11-13T03:37:53;2.83;;;1.83;;
17251;SDS011;8742;51.716;8.790;2022-11-13T03:40:20;2.80;;;1.97;;
17251;SDS011;8742;51.716;8.790;2022-11-13T03:42:47;3.13;;;1.80;;
17251;SDS011;8742;51.716;8.790;2022-11-13T03:45:14;4.87;;;2.07;;
17251;SDS011;8742;51.716;8.790;2022-11-13T03:47:41;2.07;;;1.80;;
17251;SDS011;8742;51.716;8.790;2022-11-13T03:50:09;2.17;;;1.97;;
17251;SDS011;8742;51.716;8.790;2022-11-13T03:52:36;2.20;;;1.93;;
17251;SDS011;8742;51.716;8.790;2022-11-13T03:55:03;2.90;;;1.90;;
17251;SDS011;8742;51.716;8.790;2022-11-13T03:57:30;1.77;;;1.67;;
17251;SDS011;8742;51.716;8.790;2022-11-13T03:59:57;2.60;;;2.13;;
17251;SDS011;8742;51.716;8.790;2022-11-13T04:02:24;2.80;;;2.20;;
17251;SDS011;8742;51.716;8.790;2022-11-13T04:04:51;2.27;;;1.80;;
17251;SDS011;8742;51.716;8.790;2022-11-13T04:07:19;1.90;;;1.80;;
17251;SDS011;8742;51.716;8.790;2022-11-13T04:09:46;2.87;;;2.03;;
17251;SDS011;8742;51.716;8.790;2022-11-13T04:12:12;3.70;;;2.00;;
17251;SDS011;8742;51.716;8.790;2022-11-13T04:14:39;2.30;;;1.90;;
17251;SDS011;8742;51.716;8.790;2022-11-13T04:17:06;4.27;;;2.30;;
17251;SDS011;8742;51.716;8.790;2022-11-13T04:19:33;2.13;;;1.93;;
17251;SDS011;8742;51.716;8.790;2022-11-13T04:22:00;2.60;;;1.90;;
17251;SDS011;8742;51.716;8.790;2022-11-13T04:24:28;2.20;;;2.00;;
17251;SDS011;8742;51.716;8.790;2022-11-13T04:26:54;3.83;;;2.30;;
17251;SDS011;8742;51.716;8.790;2022-11-13T04:29:22;3.57;;;1.97;;
17251;SDS011;8742;51.716;8.790;2022-11-13T04:31:48;2.37;;;1.83;;
17251;SDS011;8742;51.716;8.790;2022-11-13T04:34:15;3.70;;;2.20;;
17251;SDS011;8742;51.716;8.790;2022-11-13T04:36:42;2.43;;;2.23;;
17251;SDS011;8742;51.716;8.790;2022-11-13T04:39:09;3.67;;;2.33;;
17251;SDS011;8742;51.716;8.790;2022-11-13T04:41:37;2.03;;;1.83;;
17251;SDS011;8742;51.716;8.790;2022-11-13T04:44:22;2.23;;;1.87;;
17251;SDS011;8742;51.716;8.790;2022-11-13T04:46:49;2.20;;;2.00;;
17251;SDS011;8742;51.716;8.790;2022-11-13T04:49:15;2.63;;;2.10;;
17251;SDS011;8742;51.716;8.790;2022-11-13T04:51:42;2.63;;;2.27;;
17251;SDS011;8742;51.716;8.790;2022-11-13T04:54:09;2.53;;;1.97;;
17251;SDS011;8742;51.716;8.790;2022-11-13T04:56:38;2.63;;;2.17;;
17251;SDS011;8742;51.716;8.790;2022-11-13T04:59:04;2.40;;;1.93;;
17251;SDS011;8742;51.716;8.790;2022-11-13T05:01:31;2.93;;;2.30;;
17251;SDS011;8742;51.716;8.790;2022-11-13T05:04:00;2.43;;;2.13;;
17251;SDS011;8742;51.716;8.790;2022-11-13T05:06:27;2.50;;;1.83;;
17251;SDS011;8742;51.716;8.790;2022-11-13T05:08:54;2.37;;;2.13;;
17251;SDS011;8742;51.716;8.790;2022-11-13T05:11:21;2.97;;;2.07;;
17251;SDS011;8742;51.716;8.790;2022-11-13T05:13:49;5.77;;;1.93;;
17251;SDS011;8742;51.716;8.790;2022-11-13T05:16:16;2.80;;;1.90;;
17251;SDS011;8742;51.716;8.790;2022-11-13T05:18:43;2.57;;;1.90;;
17251;SDS011;8742;51.716;8.790;2022-11-13T05:21:10;2.77;;;1.60;;
17251;SDS011;8742;51.716;8.790;2022-11-13T05:23:37;1.93;;;1.80;;
17251;SDS011;8742;51.716;8.790;2022-11-13T05:26:05;2.77;;;1.97;;
17251;SDS011;8742;51.716;8.790;2022-11-13T05:28:33;2.20;;;2.00;;
17251;SDS011;8742;51.716;8.790;2022-11-13T05:31:03;2.30;;;1.60;;
17251;SDS011;8742;51.716;8.790;2022-11-13T05:33:31;2.37;;;1.90;;
17251;SDS011;8742;51.716;8.790;2022-11-13T05:36:01;2.07;;;1.87;;
17251;SDS011;8742;51.716;8.790;2022-11-13T05:38:28;2.13;;;1.90;;
17251;SDS011;8742;51.716;8.790;2022-11-13T05:40:59;2.10;;;1.83;;
17251;SDS011;8742;51.716;8.790;2022-11-13T05:43:27;3.77;;;2.37;;
17251;SDS011;8742;51.716;8.790;2022-11-13T05:45:58;3.30;;;1.93;;
17251;SDS011;8742;51.716;8.790;2022-11-13T05:48:41;2.50;;;2.20;;
17251;SDS011;8742;51.716;8.790;2022-11-13T05:51:09;2.87;;;1.77;;
17251;SDS011;8742;51.716;8.790;2022-11-13T05:53:37;2.43;;;1.80;;
17251;SDS011;8742;51.716;8.790;2022-11-13T05:56:05;3.63;;;2.37;;
17251;SDS011;8742;51.716;8.790;2022-11-13T05:58:35;2.83;;;2.13;;
17251;SDS011;8742;51.716;8.790;2022-11-13T06:01:06;5.13;;;2.57;;
17251;SDS011;8742;51.716;8.790;2022-11-13T06:03:35;3.07;;;2.40;;
17251;SDS011;8742;51.716;8.790;2022-11-13T06:09:04;5.13;;;2.27;;
17251;SDS011;8742;51.716;8.790;2022-11-13T06:11:31;6.67;;;2.87;;
17251;SDS011;8742;51.716;8.790;2022-11-13T06:13:59;3.93;;;2.60;;
17251;SDS011;8742;51.716;8.790;2022-11-13T06:16:27;3.67;;;2.60;;
17251;SDS011;8742;51.716;8.790;2022-11-13T06:18:55;4.00;;;2.40;;
17251;SDS011;8742;51.716;8.790;2022-11-13T06:21:35;2.50;;;2.07;;
17251;SDS011;8742;51.716;8.790;2022-11-13T06:24:03;6.63;;;2.47;;
17251;SDS011;8742;51.716;8.790;2022-11-13T06:26:32;3.27;;;2.30;;
17251;SDS011;8742;51.716;8.790;2022-11-13T06:29:00;2.20;;;2.00;;
17251;SDS011;8742;51.716;8.790;2022-11-13T06:31:29;3.43;;;2.37;;
17251;SDS011;8742;51.716;8.790;2022-11-13T06:34:21;4.67;;;2.40;;
17251;SDS011;8742;51.716;8.790;2022-11-13T06:36:54;2.53;;;2.03;;
17251;SDS011;8742;51.716;8.790;2022-11-13T06:39:21;2.97;;;2.20;;
17251;SDS011;8742;51.716;8.790;2022-11-13T06:41:48;2.27;;;1.83;;
17251;SDS011;8742;51.716;8.790;2022-11-13T06:44:15;2.43;;;1.87;;
17251;SDS011;8742;51.716;8.790;2022-11-13T06:46:41;2.07;;;1.90;;
17251;SDS011;8742;51.716;8.790;2022-11-13T06:49:08;1.80;;;1.67;;
17251;SDS011;8742;51.716;8.790;2022-11-13T06:51:35;4.27;;;2.10;;
17251;SDS011;8742;51.716;8.790;2022-11-13T06:54:03;2.50;;;2.17;;
17251;SDS011;8742;51.716;8.790;2022-11-13T06:56:30;5.20;;;2.30;;
17251;SDS011;8742;51.716;8.790;2022-11-13T06:58:57;2.27;;;2.07;;
17251;SDS011;8742;51.716;8.790;2022-11-13T07:01:24;1.87;;;1.70;;
17251;SDS011;8742;51.716;8.790;2022-11-13T07:03:51;3.40;;;2.10;;
17251;SDS011;8742;51.716;8.790;2022-11-13T07:06:19;2.30;;;1.90;;
17251;SDS011;8742;51.716;8.790;2022-11-13T07:08:47;1.80;;;1.70;;
17251;SDS011;8742;51.716;8.790;2022-11-13T07:11:17;1.63;;;1.53;;
17251;SDS011;8742;51.716;8.790;2022-11-13T07:13:44;2.33;;;1.90;;
17251;SDS011;8742;51.716;8.790;2022-11-13T07:16:12;3.20;;;2.17;;
17251;SDS011;8742;51.716;8.790;2022-11-13T07:18:39;2.77;;;1.97;;
17251;SDS011;8742;51.716;8.790;2022-11-13T07:21:07;2.73;;;1.97;;
17251;SDS011;8742;51.716;8.790;2022-11-13T07:23:36;3.47;;;2.10;;
17251;SDS011;8742;51.716;8.790;2022-11-13T07:26:07;3.00;;;2.03;;
17251;SDS011;8742;51.716;8.790;2022-11-13T07:28:36;4.27;;;2.03;;
17251;SDS011;8742;51.716;8.790;2022-11-13T07:31:03;2.80;;;2.30;;
17251;SDS011;8742;51.716;8.790;2022-11-13T07:33:31;5.23;;;1.93;;
17251;SDS011;8742;51.716;8.790;2022-11-13T07:35:58;1.70;;;1.53;;
17251;SDS011;8742;51.716;8.790;2022-11-13T07:38:28;1.90;;;1.80;;
17251;SDS011;8742;51.716;8.790;2022-11-13T07:40:56;2.40;;;2.03;;
17251;SDS011;8742;51.716;8.790;2022-11-13T07:43:23;3.93;;;2.47;;
17251;SDS011;8742;51.716;8.790;2022-11-13T07:45:52;3.37;;;2.40;;
17251;SDS011;8742;51.716;8.790;2022-11-13T07:48:19;2.77;;;2.30;;
17251;SDS011;8742;51.716;8.790;2022-11-13T07:50:47;2.13;;;2.03;;
17251;SDS011;8742;51.716;8.790;2022-11-13T07:53:14;3.07;;;2.13;;
17251;SDS011;8742;51.716;8.790;2022-11-13T07:55:41;3.30;;;1.90;;
17251;SDS011;8742;51.716;8.790;2022-11-13T07:58:08;3.13;;;1.93;;
17251;SDS011;8742;51.716;8.790;2022-11-13T08:00:35;2.97;;;2.10;;
17251;SDS011;8742;51.716;8.790;2022-11-13T08:03:07;2.40;;;2.20;;
17251;SDS011;8742;51.716;8.790;2022-11-13T08:05:35;3.67;;;2.33;;
17251;SDS011;8742;51.716;8.790;2022-11-13T08:08:02;3.27;;;2.30;;
17251;SDS011;8742;51.716;8.790;2022-11-13T08:10:29;3.30;;;2.20;;
17251;SDS011;8742;51.716;8.790;2022-11-13T08:12:57;2.47;;;2.03;;
17251;SDS011;8742;51.716;8.790;2022-11-13T08:15:25;3.03;;;1.90;;
17251;SDS011;8742;51.716;8.790;2022-11-13T08:17:53;1.83;;;1.73;;
17251;SDS011;8742;51.716;8.790;2022-11-13T08:20:21;2.77;;;2.27;;
17251;SDS011;8742;51.716;8.790;2022-11-13T08:22:48;2.90;;;2.20;;
17251;SDS011;8742;51.716;8.790;2022-11-13T08:25:16;5.80;;;2.60;;
17251;SDS011;8742;51.716;8.790;2022-11-13T08:27:44;4.30;;;3.00;;
17251;SDS011;8742;51.716;8.790;2022-11-13T08:30:11;3.00;;;2.63;;
17251;SDS011;8742;51.716;8.790;2022-11-13T08:32:39;2.50;;;2.30;;
17251;SDS011;8742;51.716;8.790;2022-11-13T08:35:06;4.47;;;2.40;;
17251;SDS011;8742;51.716;8.790;2022-11-13T08:37:35;4.27;;;2.10;;
17251;SDS011;8742;51.716;8.790;2022-11-13T08:40:01;2.10;;;1.90;;
17251;SDS011;8742;51.716;8.790;2022-11-13T08:42:29;2.53;;;1.80;;
17251;SDS011;8742;51.716;8.790;2022-11-13T08:44:55;3.30;;;2.00;;
17251;SDS011;8742;51.716;8.790;2022-11-13T08:47:22;2.37;;;1.83;;
17251;SDS011;8742;51.716;8.790;2022-11-13T08:49:52;2.00;;;1.80;;
17251;SDS011;8742;51.716;8.790;2022-11-13T08:52:19;1.70;;;1.60;;
17251;SDS011;8742;51.716;8.790;2022-11-13T08:54:47;1.93;;;1.80;;
17251;SDS011;8742;51.716;8.790;2022-11-13T08:57:14;3.67;;;1.60;;
17251;SDS011;8742;51.716;8.790;2022-11-13T08:59:41;3.40;;;2.00;;
17251;SDS011;8742;51.716;8.790;2022-11-13T09:02:08;2.50;;;2.27;;
17251;SDS011;8742;51.716;8.790;2022-11-13T09:04:38;2.60;;;1.90;;
17251;SDS011;8742;51.716;8.790;2022-11-13T09:07:04;2.53;;;1.80;;
17251;SDS011;8742;51.716;8.790;2022-11-13T09:09:31;2.20;;;2.00;;
17251;SDS011;8742;51.716;8.790;2022-11-13T09:12:00;2.17;;;2.00;;
17251;SDS011;8742;51.716;8.790;2022-11-13T09:14:27;2.53;;;2.03;;
17251;SDS011;8742;51.716;8.790;2022-11-13T09:16:54;2.70;;;2.00;;
17251;SDS011;8742;51.716;8.790;2022-11-13T09:19:21;1.67;;;1.57;;
17251;SDS011;8742;51.716;8.790;2022-11-13T09:21:49;4.30;;;2.30;;
17251;SDS011;8742;51.716;8.790;2022-11-13T09:24:16;4.37;;;2.10;;
17251;SDS011;8742;51.716;8.790;2022-11-13T09:26:43;2.60;;;2.27;;
17251;SDS011;8742;51.716;8.790;2022-11-13T09:29:11;2.33;;;2.00;;
17251;SDS011;8742;51.716;8.790;2022-11-13T09:31:38;2.10;;;1.80;;
17251;SDS011;8742;51.716;8.790;2022-11-13T09:34:05;2.87;;;1.90;;
17251;SDS011;8742;51.716;8.790;2022-11-13T09:36:32;2.33;;;1.73;;
17251;SDS011;8742;51.716;8.790;2022-11-13T09:38:59;2.13;;;1.90;;
17251;SDS011;8742;51.716;8.790;2022-11-13T09:41:26;2.30;;;2.07;;
17251;SDS011;8742;51.716;8.790;2022-11-13T09:43:57;1.80;;;1.70;;
17251;SDS011;8742;51.716;8.790;2022-11-13T09:46:35;2.33;;;1.93;;
17251;SDS011;8742;51.716;8.790;2022-11-13T09:49:10;2.70;;;2.20;;
17251;SDS011;8742;51.716;8.790;2022-11-13T09:51:40;3.83;;;1.80;;
17251;SDS011;8742;51.716;8.790;2022-11-13T09:54:12;2.03;;;1.90;;
17251;SDS011;8742;51.716;8.790;2022-11-13T09:56:40;4.00;;;2.13;;
17251;SDS011;8742;51.716;8.790;2022-11-13T09:59:13;2.67;;;1.80;;
17251;SDS011;8742;51.716;8.790;2022-11-13T10:01:50;1.87;;;1.77;;
17251;SDS011;8742;51.716;8.790;2022-11-13T10:04:25;2.57;;;2.00;;
17251;SDS011;8742;51.716;8.790;2022-11-13T10:07:04;2.60;;;1.97;;
17251;SDS011;8742;51.716;8.790;2022-11-13T10:09:43;2.37;;;1.90;;
17251;SDS011;8742;51.716;8.790;2022-11-13T10:12:19;3.70;;;2.10;;
17251;SDS011;8742;51.716;8.790;2022-11-13T10:14:47;2.00;;;1.80;;
17251;SDS011;8742;51.716;8.790;2022-11-13T10:17:20;2.07;;;1.93;;
17251;SDS011;8742;51.716;8.790;2022-11-13T10:19:52;2.03;;;1.83;;
17251;SDS011;8742;51.716;8.790;2022-11-13T10:22:24;2.20;;;1.90;;
17251;SDS011;8742;51.716;8.790;2022-11-13T10:24:57;2.70;;;1.93;;
17251;SDS011;8742;51.716;8.790;2022-11-13T22:58:21;25.40;;;12.30;;
17251;SDS011;8742;51.716;8.790;2022-11-13T23:00:52;27.97;;;12.77;;
17251;SDS011;8742;51.716;8.790;2022-11-13T23:03:19;25.03;;;12.17;;
17251;SDS011;8742;51.716;8.790;2022-11-13T23:05:45;19.33;;;11.40;;
17251;SDS011;8742;51.716;8.790;2022-11-13T23:08:12;24.27;;;11.77;;
17251;SDS011;8742;51.716;8.790;2022-11-13T23:10:39;22.57;;;11.80;;
17251;SDS011;8742;51.716;8.790;2022-11-13T23:13:06;24.47;;;11.50;;
17251;SDS011;8742;51.716;8.790;2022-11-13T23:15:34;23.80;;;12.83;;
17251;SDS011;8742;51.716;8.790;2022-11-13T23:18:01;22.70;;;12.13;;
17251;SDS011;8742;51.716;8.790;2022-11-13T23:20:28;31.10;;;13.30;;
17251;SDS011;8742;51.716;8.790;2022-11-13T23:22:54;25.17;;;12.40;;
17251;SDS011;8742;51.716;8.790;2022-11-13T23:25:21;26.77;;;12.77;;
17251;SDS011;8742;51.716;8.790;2022-11-13T23:27:48;20.07;;;10.97;;
17251;SDS011;8742;51.716;8.790;2022-11-13T23:30:15;24.30;;;12.13;;
17251;SDS011;8742;51.716;8.790;2022-11-13T23:32:43;25.70;;;11.70;;
17251;SDS011;8742;51.716;8.790;2022-11-13T23:35:10;25.60;;;13.20;;
17251;SDS011;8742;51.716;8.790;2022-11-13T23:37:36;24.17;;;12.40;;
17251;SDS011;8742;51.716;8.790;2022-11-13T23:40:04;30.00;;;12.93;;
17251;SDS011;8742;51.716;8.790;2022-11-13T23:42:31;26.00;;;12.90;;
17251;SDS011;8742;51.716;8.790;2022-11-13T23:44:58;35.37;;;13.33;;
17251;SDS011;8742;51.716;8.790;2022-11-13T23:47:25;29.53;;;13.00;;
17251;SDS011;8742;51.716;8.790;2022-11-13T23:49:53;27.40;;;14.10;;
17251;SDS011;8742;51.716;8.790;2022-11-13T23:52:20;25.30;;;13.30;;
17251;SDS011;8742;51.716;8.790;2022-11-13T23:54:47;31.13;;;14.60;;
17251;SDS011;8742;51.716;8.790;2022-11-13T23:57:13;27.73;;;14.43;;
17251;SDS011;8742;51.716;8.790;2022-11-13T23:59:40;29.73;;;14.57;;
